Time;durP1;ratioP1;P1;durP2;ratioP2;P2;SDS_P1;SDS_P2;PMS_P1;PMS_P2;Temp;Humidity;BMP_temperature;BMP_pressure;BME280_temperature;BME280_humidity;BME280_pressure;Samples;Min_cycle;Max_cycle;Signal;HPM_P1;HPM_P2
2022/01/17 00:01:27;;;;;;;2.47;2.37;;;2.40;99.90;;;;;;5090309;28;20531;-87
2022/01/17 00:03:54;;;;;;;1.30;0.82;;;2.30;99.90;;;;;;5092818;28;20502;-85
2022/01/17 00:06:23;;;;;;;0.30;0.20;;;2.40;99.90;;;;;;5091772;28;20261;-87
2022/01/17 00:08:50;;;;;;;0.30;0.10;;;2.40;99.90;;;;;;5093364;28;20433;-87
2022/01/17 00:11:19;;;;;;;0.30;0.10;;;2.30;99.90;;;;;;5092387;28;20200;-87
2022/01/17 00:13:47;;;;;;;0.30;0.10;;;2.40;99.90;;;;;;5089626;28;20968;-86
2022/01/17 00:16:21;;;;;;;0.30;0.20;;;2.40;99.90;;;;;;5092799;28;20437;-86
2022/01/17 00:21:41;;;;;;;0.30;0.10;;;2.30;99.90;;;;;;5064719;28;20760;-86
2022/01/17 00:24:09;;;;;;;0.30;0.10;;;2.30;99.90;;;;;;5091121;28;20462;-85
2022/01/17 00:26:36;;;;;;;0.30;0.10;;;2.30;99.90;;;;;;5092569;28;20482;-88
2022/01/17 00:29:03;;;;;;;0.30;0.10;;;2.20;99.90;;;;;;5090195;28;20462;-88
2022/01/17 00:31:30;;;;;;;0.50;0.40;;;2.20;99.90;;;;;;5093535;28;20435;-86
2022/01/17 00:33:57;;;;;;;4.93;1.70;;;2.30;99.90;;;;;;5091583;28;20485;-86
2022/01/17 00:36:24;;;;;;;0.30;0.10;;;2.20;99.90;;;;;;5091421;28;20443;-86
2022/01/17 00:38:52;;;;;;;1.43;1.17;;;2.20;99.90;;;;;;5092146;28;20452;-88
2022/01/17 00:41:19;;;;;;;0.30;0.20;;;2.10;99.90;;;;;;5107433;28;20503;-86
2022/01/17 00:43:46;;;;;;;0.93;0.93;;;2.10;99.90;;;;;;5106256;28;20855;-86
2022/01/17 00:46:13;;;;;;;0.30;0.10;;;2.10;99.90;;;;;;5095050;28;21030;-86
2022/01/17 00:48:40;;;;;;;0.57;0.57;;;2.00;99.90;;;;;;5092016;28;20959;-86
2022/01/17 00:51:08;;;;;;;0.40;0.38;;;1.90;99.90;;;;;;5092996;28;20445;-86
2022/01/17 00:53:37;;;;;;;0.30;0.10;;;1.80;99.90;;;;;;5090132;28;20650;-87
2022/01/17 00:56:05;;;;;;;0.30;0.10;;;1.80;99.90;;;;;;5089105;28;20492;-86
2022/01/17 00:58:33;;;;;;;0.30;0.10;;;1.80;99.90;;;;;;5087992;28;20223;-86
2022/01/17 01:01:00;;;;;;;0.30;0.10;;;1.90;99.90;;;;;;5089010;28;20195;-86
2022/01/17 01:03:27;;;;;;;0.30;0.10;;;1.80;99.90;;;;;;5089624;28;20208;-86
2022/01/17 01:05:54;;;;;;;0.30;0.10;;;1.80;99.90;;;;;;5092225;28;21056;-86
2022/01/17 01:08:21;;;;;;;0.30;0.10;;;1.90;99.90;;;;;;5089544;28;20193;-86
2022/01/17 01:10:48;;;;;;;0.30;0.10;;;1.90;99.90;;;;;;5113059;28;20434;-85
2022/01/17 01:13:21;;;;;;;0.30;0.10;;;1.90;99.90;;;;;;5116616;28;20178;-86
2022/01/17 01:16:09;;;;;;;0.30;0.17;;;1.90;99.90;;;;;;5112841;28;20199;-87
2022/01/17 01:18:49;;;;;;;0.30;0.10;;;1.80;99.90;;;;;;5116176;28;20188;-86
2022/01/17 01:29:44;;;;;;;0.73;0.73;;;1.70;99.90;;;;;;5096678;28;20258;-88
2022/01/17 01:32:12;;;;;;;0.30;0.10;;;1.70;99.90;;;;;;5095240;28;20193;-86
2022/01/17 01:34:43;;;;;;;0.30;0.10;;;1.70;99.90;;;;;;5095748;28;20453;-85
2022/01/17 01:37:11;;;;;;;0.30;0.23;;;1.70;99.90;;;;;;5096379;28;20809;-87
2022/01/17 01:39:38;;;;;;;0.30;0.20;;;1.70;99.90;;;;;;5094915;28;20541;-86
2022/01/17 01:42:07;;;;;;;0.30;0.10;;;1.80;99.90;;;;;;5092962;28;20207;-86
2022/01/17 01:44:37;;;;;;;0.30;0.10;;;1.80;99.90;;;;;;5085804;28;20442;-87
2022/01/17 01:47:04;;;;;;;1.13;1.03;;;1.80;99.90;;;;;;5084861;28;20725;-87
2022/01/17 01:49:31;;;;;;;0.30;0.20;;;1.80;99.90;;;;;;5085872;28;20455;-86
2022/01/17 01:51:58;;;;;;;0.30;0.10;;;1.80;99.90;;;;;;5087358;28;20462;-86
2022/01/17 01:54:25;;;;;;;0.30;0.20;;;1.80;99.90;;;;;;5081396;28;20571;-86
2022/01/17 01:56:52;;;;;;;0.30;0.20;;;1.90;99.90;;;;;;5083149;28;20543;-86
2022/01/17 01:59:21;;;;;;;0.30;0.20;;;1.80;99.90;;;;;;5084147;28;20935;-85
2022/01/17 02:01:51;;;;;;;0.30;0.17;;;1.80;99.90;;;;;;5091055;28;20457;-86
2022/01/17 02:04:18;;;;;;;0.30;0.20;;;1.80;99.90;;;;;;5088384;28;20488;-87
2022/01/17 02:06:45;;;;;;;0.30;0.10;;;1.80;99.90;;;;;;5090496;28;20505;-85
2022/01/17 02:09:12;;;;;;;0.30;0.20;;;1.80;99.90;;;;;;5089815;28;20527;-86
2022/01/17 02:11:39;;;;;;;0.30;0.10;;;1.80;99.90;;;;;;5087965;28;20211;-87
2022/01/17 02:14:06;;;;;;;0.30;0.10;;;1.70;99.90;;;;;;5095144;28;20434;-88
2022/01/17 02:16:34;;;;;;;0.30;0.10;;;1.80;99.90;;;;;;5112153;28;20576;-85
2022/01/17 02:19:02;;;;;;;0.33;0.20;;;1.80;99.90;;;;;;5107589;28;20448;-85
2022/01/17 02:21:44;;;;;;;0.30;0.10;;;1.80;99.90;;;;;;5105250;28;20929;-86
2022/01/17 02:24:11;;;;;;;0.30;0.20;;;1.80;99.90;;;;;;5089378;28;20460;-86
2022/01/17 02:26:38;;;;;;;0.30;0.10;;;1.70;99.90;;;;;;5076768;28;20761;-87
2022/01/17 02:29:06;;;;;;;0.30;0.20;;;1.70;99.90;;;;;;5087954;28;20925;-87
2022/01/17 02:31:33;;;;;;;0.70;0.65;;;1.70;99.90;;;;;;5087728;28;20282;-88
2022/01/17 02:34:01;;;;;;;0.38;0.20;;;1.70;99.90;;;;;;5086796;28;21015;-87
2022/01/17 02:36:30;;;;;;;0.50;0.43;;;1.60;99.90;;;;;;5090383;28;20252;-88
2022/01/17 02:38:57;;;;;;;0.30;0.20;;;1.60;99.90;;;;;;5090890;28;20922;-87
2022/01/17 02:41:28;;;;;;;0.90;0.90;;;1.70;99.90;;;;;;5085490;28;20198;-87
2022/01/17 02:43:56;;;;;;;0.30;0.23;;;1.60;99.90;;;;;;5090105;28;20192;-88
2022/01/17 02:46:26;;;;;;;0.30;0.10;;;1.60;99.90;;;;;;5090431;28;20481;-86
2022/01/17 02:48:54;;;;;;;0.40;0.20;;;1.70;99.90;;;;;;5089656;28;20470;-87
2022/01/17 02:51:21;;;;;;;0.30;0.10;;;1.60;99.90;;;;;;5089964;28;20287;-85
2022/01/17 02:53:50;;;;;;;0.30;0.20;;;1.70;99.90;;;;;;5089482;28;20192;-87
2022/01/17 02:56:17;;;;;;;0.30;0.10;;;1.60;99.90;;;;;;5089719;28;20221;-88
2022/01/17 02:58:44;;;;;;;0.30;0.10;;;1.70;99.90;;;;;;5087865;28;20299;-87
2022/01/17 03:01:13;;;;;;;0.30;0.10;;;1.70;99.90;;;;;;5089926;28;20438;-87
2022/01/17 03:03:42;;;;;;;0.30;0.13;;;1.80;99.90;;;;;;5089341;28;20212;-88
2022/01/17 03:06:09;;;;;;;0.30;0.13;;;1.80;99.90;;;;;;5089540;28;20489;-87
2022/01/17 03:08:38;;;;;;;0.30;0.30;;;1.80;99.90;;;;;;5089148;28;20462;-87
2022/01/17 03:11:08;;;;;;;0.30;0.20;;;1.90;99.90;;;;;;5086736;28;20201;-87
2022/01/17 03:13:37;;;;;;;0.30;0.20;;;1.90;99.90;;;;;;5088832;28;20537;-87
2022/01/17 03:16:09;;;;;;;0.57;0.57;;;1.90;99.90;;;;;;5087407;28;20207;-87
2022/01/17 03:18:39;;;;;;;0.30;0.10;;;1.90;99.90;;;;;;5089798;28;20494;-87
2022/01/17 03:21:08;;;;;;;0.30;0.20;;;1.90;99.90;;;;;;5089750;28;20466;-87
2022/01/17 03:23:35;;;;;;;0.80;0.73;;;1.90;99.90;;;;;;5085811;28;20462;-87
2022/01/17 03:26:02;;;;;;;0.30;0.10;;;1.90;99.90;;;;;;5090167;28;20510;-87
2022/01/17 03:28:31;;;;;;;0.30;0.10;;;2.00;99.90;;;;;;5092484;28;20517;-87
2022/01/17 03:30:59;;;;;;;0.30;0.17;;;2.00;99.90;;;;;;5094009;28;20445;-88
2022/01/17 03:33:27;;;;;;;0.30;0.10;;;1.90;99.90;;;;;;5090859;28;20929;-87
2022/01/17 03:35:54;;;;;;;0.30;0.10;;;1.90;99.90;;;;;;5093130;28;20616;-87
2022/01/17 03:38:24;;;;;;;0.30;0.10;;;2.00;99.90;;;;;;5090060;28;20451;-89
2022/01/17 03:40:51;;;;;;;0.30;0.20;;;2.00;99.90;;;;;;5092124;28;20443;-88
2022/01/17 03:43:19;;;;;;;0.50;0.40;;;2.00;99.90;;;;;;5092397;28;20442;-88
2022/01/17 03:45:49;;;;;;;0.40;0.20;;;2.10;99.90;;;;;;5088941;28;20571;-89
2022/01/17 03:48:17;;;;;;;0.30;0.20;;;2.10;99.90;;;;;;5093264;28;20453;-89
2022/01/17 03:50:44;;;;;;;0.30;0.10;;;2.20;99.90;;;;;;5104527;28;20422;-89
2022/01/17 03:53:11;;;;;;;0.40;0.37;;;2.20;99.90;;;;;;5113359;28;20492;-89
2022/01/17 03:55:38;;;;;;;0.30;0.20;;;2.20;99.90;;;;;;5112667;28;20459;-89
2022/01/17 03:58:07;;;;;;;0.30;0.10;;;2.20;99.90;;;;;;5108791;28;20474;-89
2022/01/17 04:00:37;;;;;;;0.30;0.10;;;2.20;99.90;;;;;;5091106;28;20542;-88
2022/01/17 04:03:05;;;;;;;0.40;0.30;;;2.20;99.90;;;;;;5082430;28;20435;-88
2022/01/17 04:05:32;;;;;;;0.30;0.10;;;2.30;99.90;;;;;;5093665;28;20883;-89
2022/01/17 04:07:59;;;;;;;0.43;0.43;;;2.30;99.90;;;;;;5093244;28;20228;-89
2022/01/17 04:10:26;;;;;;;0.30;0.20;;;2.30;99.90;;;;;;5090060;28;20259;-88
2022/01/17 04:13:00;;;;;;;0.30;0.10;;;2.30;99.90;;;;;;5092140;28;20503;-90
2022/01/17 04:15:27;;;;;;;0.30;0.10;;;2.30;99.90;;;;;;5092335;28;20309;-90
2022/01/17 04:17:54;;;;;;;0.65;0.65;;;2.30;99.90;;;;;;5092571;28;20514;-91
2022/01/17 04:20:27;;;;;;;0.30;0.20;;;2.30;99.90;;;;;;5093003;28;20280;-88
2022/01/17 04:22:54;;;;;;;0.30;0.10;;;2.30;99.90;;;;;;5092830;28;20678;-89
2022/01/17 04:25:22;;;;;;;0.30;0.15;;;2.30;99.90;;;;;;5091843;28;20512;-89
2022/01/17 04:27:50;;;;;;;0.30;0.10;;;2.40;99.90;;;;;;5092406;28;20283;-88
2022/01/17 04:30:17;;;;;;;0.50;0.50;;;2.40;99.90;;;;;;5091802;28;20461;-87
2022/01/17 04:32:45;;;;;;;0.30;0.10;;;2.40;99.90;;;;;;5090493;28;20454;-89
2022/01/17 04:35:14;;;;;;;1.50;0.50;;;2.40;99.90;;;;;;5091870;28;20496;-88
2022/01/17 04:37:43;;;;;;;0.35;0.20;;;2.40;99.90;;;;;;5092228;28;20446;-89
2022/01/17 04:40:11;;;;;;;0.30;0.10;;;2.40;99.90;;;;;;5092781;28;20253;-88
2022/01/17 04:42:44;;;;;;;0.30;0.10;;;2.30;99.90;;;;;;5093226;28;20500;-88
2022/01/17 04:45:13;;;;;;;0.30;0.10;;;2.30;99.90;;;;;;5093274;28;20481;-88
2022/01/17 04:47:43;;;;;;;0.40;0.30;;;2.40;99.90;;;;;;5091787;28;20225;-90
2022/01/17 04:50:13;;;;;;;0.40;0.40;;;2.40;99.90;;;;;;5093304;28;20445;-89
2022/01/17 04:52:40;;;;;;;0.30;0.10;;;2.50;99.90;;;;;;5088823;28;20471;-89
2022/01/17 04:55:10;;;;;;;0.30;0.10;;;2.50;99.90;;;;;;5089399;28;21004;-90
2022/01/17 04:57:38;;;;;;;1.10;1.10;;;2.50;99.90;;;;;;5092624;28;20479;-89
2022/01/17 05:00:06;;;;;;;0.30;0.10;;;2.50;99.90;;;;;;5089762;28;20269;-89
2022/01/17 05:02:34;;;;;;;0.50;0.50;;;2.50;99.90;;;;;;5087977;28;20246;-88
2022/01/17 05:05:02;;;;;;;0.30;0.10;;;2.60;99.90;;;;;;5088080;28;20924;-91
2022/01/17 05:07:29;;;;;;;0.30;0.10;;;2.50;99.90;;;;;;5091072;28;20478;-88
2022/01/17 05:09:56;;;;;;;0.30;0.10;;;2.60;99.90;;;;;;5088549;28;20473;-90
2022/01/17 05:12:25;;;;;;;0.30;0.13;;;2.60;99.90;;;;;;5089871;28;20446;-88
2022/01/17 05:14:53;;;;;;;0.30;0.20;;;2.50;99.90;;;;;;5095596;28;20957;-87
2022/01/17 05:17:37;;;;;;;0.30;0.20;;;2.60;99.90;;;;;;5095053;28;20469;-87
2022/01/17 05:20:07;;;;;;;0.30;0.10;;;2.50;99.90;;;;;;5088289;28;20468;-89
2022/01/17 05:22:37;;;;;;;0.30;0.20;;;2.50;99.90;;;;;;5090443;28;20204;-89
2022/01/17 05:25:08;;;;;;;0.30;0.10;;;2.50;99.90;;;;;;5091235;28;20450;-88
2022/01/17 05:27:37;;;;;;;1.23;0.47;;;2.50;99.90;;;;;;5109103;28;20504;-89
2022/01/17 05:30:08;;;;;;;0.30;0.10;;;2.50;99.90;;;;;;5105835;28;20979;-90
2022/01/17 05:32:35;;;;;;;0.30;0.10;;;2.50;99.90;;;;;;5101072;28;20226;-88
2022/01/17 05:35:02;;;;;;;0.30;0.10;;;2.70;99.90;;;;;;5094828;28;20200;-88
2022/01/17 05:37:29;;;;;;;0.30;0.10;;;2.80;99.90;;;;;;5090268;28;20471;-88
2022/01/17 05:39:56;;;;;;;0.30;0.10;;;2.80;99.90;;;;;;5087250;28;20504;-89
2022/01/17 05:42:24;;;;;;;0.30;0.20;;;2.80;99.90;;;;;;5083847;28;20453;-88
2022/01/17 05:44:53;;;;;;;0.30;0.10;;;2.80;99.90;;;;;;5088632;28;20451;-89
2022/01/17 05:47:21;;;;;;;0.30;0.10;;;2.70;99.90;;;;;;5088514;28;20924;-89
2022/01/17 05:49:48;;;;;;;0.30;0.10;;;2.80;99.90;;;;;;5084972;28;21013;-88
2022/01/17 05:52:15;;;;;;;0.30;0.10;;;2.70;99.90;;;;;;5089283;28;20443;-88
2022/01/17 05:54:43;;;;;;;0.40;0.20;;;2.80;99.90;;;;;;5091070;28;20442;-88
2022/01/17 05:57:10;;;;;;;0.30;0.10;;;2.80;99.90;;;;;;5084240;28;20494;-88
2022/01/17 05:59:37;;;;;;;0.30;0.10;;;2.80;99.90;;;;;;5091693;28;20915;-88
2022/01/17 06:02:06;;;;;;;0.30;0.10;;;2.70;99.90;;;;;;5092381;28;20519;-84
2022/01/17 06:04:33;;;;;;;0.30;0.10;;;2.70;99.90;;;;;;5091433;28;20470;-85
2022/01/17 06:07:00;;;;;;;1.27;1.17;;;2.80;99.90;;;;;;5092747;28;20482;-85
2022/01/17 06:09:27;;;;;;;0.30;0.10;;;2.80;99.90;;;;;;5092496;28;20461;-88
2022/01/17 06:11:54;;;;;;;0.30;0.10;;;2.80;99.90;;;;;;5086206;28;20942;-85
2022/01/17 06:14:21;;;;;;;0.30;0.10;;;2.80;99.90;;;;;;5071245;28;20443;-86
2022/01/17 06:16:49;;;;;;;0.30;0.10;;;2.80;99.90;;;;;;5070083;28;20467;-85
2022/01/17 06:19:18;;;;;;;0.30;0.10;;;2.80;99.90;;;;;;5074579;28;20454;-89
2022/01/17 06:21:46;;;;;;;0.30;0.10;;;2.80;99.90;;;;;;5084261;28;20512;-85
2022/01/17 06:24:13;;;;;;;0.30;0.10;;;2.80;99.90;;;;;;5083160;28;20500;-85
2022/01/17 06:26:42;;;;;;;0.30;0.10;;;2.80;99.90;;;;;;5086469;28;20582;-87
2022/01/17 06:29:10;;;;;;;0.30;0.10;;;2.80;99.90;;;;;;5069421;28;20901;-85
2022/01/17 06:31:39;;;;;;;0.30;0.20;;;2.80;99.90;;;;;;5086809;28;20471;-89
2022/01/17 06:34:06;;;;;;;0.30;0.10;;;2.80;99.90;;;;;;5087045;28;20458;-85
2022/01/17 06:36:34;;;;;;;0.30;0.10;;;2.80;99.90;;;;;;5070932;28;20507;-86
2022/01/17 06:39:02;;;;;;;0.30;0.10;;;2.80;99.90;;;;;;5070170;28;20435;-86
2022/01/17 06:41:30;;;;;;;0.30;0.10;;;2.80;99.90;;;;;;5070304;28;20785;-85
2022/01/17 06:43:58;;;;;;;0.30;0.10;;;2.90;99.90;;;;;;5070975;28;20463;-85
2022/01/17 06:46:25;;;;;;;0.30;0.10;;;2.90;99.90;;;;;;5070365;28;20921;-85
2022/01/17 06:48:52;;;;;;;0.53;0.53;;;2.90;99.90;;;;;;5069517;28;20451;-85
2022/01/17 06:51:19;;;;;;;0.30;0.10;;;3.00;99.90;;;;;;5081511;28;20458;-85
2022/01/17 06:53:48;;;;;;;0.30;0.10;;;3.00;99.90;;;;;;5086995;28;21220;-87
2022/01/17 06:56:15;;;;;;;0.30;0.20;;;2.90;99.90;;;;;;5069784;28;20461;-87
2022/01/17 06:58:42;;;;;;;0.30;0.10;;;3.00;99.90;;;;;;5071116;28;20972;-90
2022/01/17 07:01:10;;;;;;;0.30;0.13;;;2.90;99.90;;;;;;5070814;28;20444;-85
2022/01/17 07:03:37;;;;;;;0.30;0.10;;;2.90;99.90;;;;;;5087792;28;20496;-86
2022/01/17 07:06:05;;;;;;;0.80;0.53;;;3.00;99.90;;;;;;5081542;28;20459;-85
2022/01/17 07:08:32;;;;;;;0.30;0.10;;;3.00;99.90;;;;;;5075791;28;20475;-85
2022/01/17 07:11:00;;;;;;;0.30;0.10;;;3.00;99.90;;;;;;5073509;28;20456;-86
2022/01/17 07:13:27;;;;;;;0.30;0.10;;;3.00;99.90;;;;;;5085659;28;20993;-88
2022/01/17 07:15:54;;;;;;;0.30;0.10;;;3.00;99.90;;;;;;5089603;28;20809;-85
2022/01/17 07:18:21;;;;;;;0.30;0.10;;;3.00;99.90;;;;;;5090350;28;20775;-85
2022/01/17 07:20:48;;;;;;;0.30;0.10;;;3.00;99.90;;;;;;5086521;28;20464;-84
2022/01/17 07:23:16;;;;;;;0.30;0.10;;;3.00;99.90;;;;;;5074727;28;20493;-85
2022/01/17 07:25:43;;;;;;;0.30;0.10;;;3.00;99.90;;;;;;5074477;28;20952;-85
2022/01/17 07:28:13;;;;;;;0.30;0.10;;;3.00;99.90;;;;;;5070096;28;20491;-84
2022/01/17 07:30:40;;;;;;;0.30;0.10;;;3.00;99.90;;;;;;5072900;28;20466;-84
2022/01/17 07:33:08;;;;;;;0.30;0.20;;;3.00;99.90;;;;;;5090375;28;20443;-85
2022/01/17 07:35:36;;;;;;;0.30;0.10;;;3.00;99.90;;;;;;5088991;28;20459;-85
2022/01/17 07:38:04;;;;;;;0.30;0.10;;;3.00;99.90;;;;;;5089342;28;20484;-87
2022/01/17 07:40:31;;;;;;;0.30;0.10;;;3.00;99.90;;;;;;5090016;28;20434;-84
2022/01/17 07:42:58;;;;;;;0.30;0.10;;;3.10;99.90;;;;;;5079661;28;20516;-86
2022/01/17 07:45:27;;;;;;;0.30;0.10;;;3.10;99.90;;;;;;5069813;28;20448;-85
2022/01/17 07:48:11;;;;;;;0.30;0.10;;;3.10;99.90;;;;;;5068843;28;20517;-84
2022/01/17 07:50:39;;;;;;;0.30;0.10;;;3.00;99.90;;;;;;5069559;28;20464;-85
2022/01/17 07:53:06;;;;;;;0.30;0.20;;;3.10;99.90;;;;;;5071749;28;20450;-85
2022/01/17 07:55:33;;;;;;;0.30;0.10;;;3.10;99.90;;;;;;5072309;28;20448;-84
2022/01/17 07:58:00;;;;;;;1.63;1.53;;;3.10;99.90;;;;;;5071059;28;20493;-84
2022/01/17 08:00:28;;;;;;;0.30;0.20;;;3.10;99.90;;;;;;5070617;28;20436;-85
2022/01/17 08:02:58;;;;;;;0.30;0.10;;;3.10;99.90;;;;;;5072021;28;20501;-85
2022/01/17 08:05:26;;;;;;;0.30;0.10;;;3.10;99.90;;;;;;5081530;28;21002;-86
2022/01/17 08:07:53;;;;;;;0.30;0.10;;;3.10;99.90;;;;;;5088649;28;20532;-85
2022/01/17 08:10:20;;;;;;;0.30;0.10;;;3.20;99.90;;;;;;5089562;28;20443;-83
2022/01/17 08:12:48;;;;;;;0.30;0.10;;;3.20;99.90;;;;;;5089604;28;21229;-84
2022/01/17 08:15:16;;;;;;;0.30;0.10;;;3.20;99.90;;;;;;5092264;28;20520;-83
2022/01/17 08:17:46;;;;;;;0.40;0.30;;;3.20;99.90;;;;;;5092771;28;20446;-84
2022/01/17 08:20:15;;;;;;;0.30;0.10;;;3.20;99.90;;;;;;5089877;28;20458;-83
2022/01/17 08:22:45;;;;;;;0.30;0.10;;;3.20;99.90;;;;;;5092885;28;20540;-83
2022/01/17 08:25:12;;;;;;;0.30;0.10;;;3.30;99.90;;;;;;5090102;28;20926;-84
2022/01/17 08:27:39;;;;;;;0.30;0.20;;;3.30;99.90;;;;;;5093739;28;20551;-83
2022/01/17 08:30:08;;;;;;;0.40;0.30;;;3.30;99.90;;;;;;5091071;28;20524;-83
2022/01/17 08:32:35;;;;;;;1.90;1.40;;;3.30;99.90;;;;;;5090887;28;20439;-85
2022/01/17 08:35:05;;;;;;;0.30;0.10;;;3.40;99.90;;;;;;5107958;28;20427;-84
2022/01/17 08:37:32;;;;;;;0.30;0.20;;;3.40;99.90;;;;;;5116164;28;20439;-83
2022/01/17 08:40:00;;;;;;;0.30;0.10;;;3.40;99.90;;;;;;5114341;28;20451;-84
2022/01/17 08:42:27;;;;;;;0.30;0.20;;;3.50;99.90;;;;;;5104471;28;20451;-84
2022/01/17 08:44:56;;;;;;;0.30;0.10;;;3.40;99.90;;;;;;5106378;28;20446;-81
2022/01/17 08:47:23;;;;;;;0.50;0.27;;;3.40;99.90;;;;;;5100466;28;20486;-84
2022/01/17 08:49:51;;;;;;;0.30;0.10;;;3.40;99.90;;;;;;5093469;28;20509;-84
2022/01/17 08:52:21;;;;;;;0.30;0.10;;;3.40;99.90;;;;;;5098849;28;20520;-87
2022/01/17 08:54:48;;;;;;;0.30;0.10;;;3.40;99.90;;;;;;5092064;28;20527;-84
2022/01/17 08:57:17;;;;;;;0.30;0.10;;;3.40;99.90;;;;;;5088355;28;20545;-83
2022/01/17 08:59:44;;;;;;;0.30;0.10;;;3.40;99.90;;;;;;5093478;28;20459;-83
2022/01/17 09:02:11;;;;;;;0.30;0.10;;;3.40;99.90;;;;;;5094109;28;20439;-83
2022/01/17 09:04:41;;;;;;;0.30;0.10;;;3.40;99.90;;;;;;5093063;28;20451;-84
2022/01/17 09:07:09;;;;;;;0.30;0.10;;;3.40;99.90;;;;;;5092223;28;20475;-85
2022/01/17 09:09:38;;;;;;;0.30;0.10;;;3.50;99.90;;;;;;5089726;28;20441;-84
2022/01/17 09:12:07;;;;;;;0.30;0.10;;;3.50;99.90;;;;;;5083805;28;20504;-84
2022/01/17 09:14:34;;;;;;;0.57;0.23;;;3.50;99.90;;;;;;5091687;28;20451;-83
2022/01/17 09:17:02;;;;;;;0.30;0.10;;;3.50;99.90;;;;;;5092252;28;20487;-87
2022/01/17 09:19:29;;;;;;;0.30;0.10;;;3.50;99.90;;;;;;5085717;28;20450;-84
2022/01/17 09:21:57;;;;;;;0.30;0.10;;;3.50;99.90;;;;;;5091505;28;20449;-84
2022/01/17 09:24:25;;;;;;;0.30;0.10;;;3.60;99.90;;;;;;5092478;28;20443;-84
2022/01/17 09:26:54;;;;;;;0.30;0.10;;;3.60;99.90;;;;;;5089916;28;20458;-83
2022/01/17 09:29:21;;;;;;;0.30;0.20;;;3.60;99.90;;;;;;5090725;28;20491;-82
2022/01/17 09:31:48;;;;;;;0.60;0.50;;;3.50;99.90;;;;;;5091995;28;20438;-86
2022/01/17 09:34:15;;;;;;;0.30;0.10;;;3.50;99.90;;;;;;5091619;28;20855;-84
2022/01/17 09:36:42;;;;;;;0.87;0.87;;;3.50;99.90;;;;;;5090467;28;20467;-85
2022/01/17 09:39:10;;;;;;;0.30;0.10;;;3.60;99.90;;;;;;5086003;28;20459;-83
2022/01/17 09:41:38;;;;;;;0.30;0.10;;;3.70;99.90;;;;;;5071202;28;20520;-86
2022/01/17 09:44:09;;;;;;;0.30;0.10;;;3.60;99.90;;;;;;5071173;28;20452;-85
2022/01/17 09:46:40;;;;;;;0.30;0.20;;;3.60;99.90;;;;;;5072033;28;20436;-83
2022/01/17 09:49:21;;;;;;;0.30;0.10;;;3.60;99.90;;;;;;5074700;28;20495;-83
2022/01/17 09:54:36;;;;;;;0.30;0.10;;;3.60;99.90;;;;;;5091160;28;20438;-84
2022/01/17 09:57:09;;;;;;;0.30;0.10;;;3.70;99.90;;;;;;5091384;28;20553;-84
2022/01/17 09:59:40;;;;;;;0.30;0.10;;;3.70;99.90;;;;;;5074679;28;20470;-83
2022/01/17 10:02:08;;;;;;;0.30;0.10;;;3.60;99.90;;;;;;5077312;28;20466;-85
2022/01/17 10:04:36;;;;;;;1.07;0.53;;;3.60;99.90;;;;;;5091715;28;20443;-83
2022/01/17 10:07:05;;;;;;;0.30;0.17;;;3.70;99.90;;;;;;5090291;28;20450;-84
2022/01/17 10:09:33;;;;;;;0.30;0.10;;;3.70;99.90;;;;;;5090997;28;20853;-84
2022/01/17 10:12:03;;;;;;;0.30;0.20;;;3.70;99.90;;;;;;5090845;28;20450;-86
2022/01/17 10:14:36;;;;;;;0.30;0.10;;;3.70;99.90;;;;;;5114380;28;20464;-84
2022/01/17 10:17:06;;;;;;;0.30;0.10;;;3.80;99.90;;;;;;5108188;28;20534;-84
2022/01/17 10:19:33;;;;;;;0.30;0.20;;;3.90;99.90;;;;;;5103163;28;20536;-84
2022/01/17 10:22:02;;;;;;;0.30;0.10;;;3.90;99.90;;;;;;5076886;28;20463;-84
2022/01/17 10:24:37;;;;;;;0.30;0.10;;;3.90;99.90;;;;;;5076533;28;20446;-84
2022/01/17 10:27:18;;;;;;;0.30;0.10;;;3.90;99.90;;;;;;5091113;28;20438;-84
2022/01/17 10:35:23;;;;;;;0.30;0.10;;;4.00;99.90;;;;;;5070013;28;20830;-84
2022/01/17 10:38:03;;;;;;;0.30;0.10;;;3.90;99.90;;;;;;5086183;28;20459;-84
2022/01/17 10:40:32;;;;;;;0.30;0.10;;;4.00;99.90;;;;;;5084982;28;20513;-84
2022/01/17 10:43:01;;;;;;;0.30;0.10;;;4.00;99.90;;;;;;5080986;28;20508;-84
2022/01/17 10:45:33;;;;;;;0.30;0.10;;;4.00;99.90;;;;;;5090647;28;20454;-86
2022/01/17 10:48:04;;;;;;;0.30;0.10;;;4.00;99.90;;;;;;5076046;28;20715;-84
2022/01/17 10:50:33;;;;;;;0.60;0.43;;;4.00;99.90;;;;;;5070881;28;20475;-84
2022/01/17 10:53:02;;;;;;;0.30;0.20;;;4.00;99.90;;;;;;5070623;28;20850;-87
2022/01/17 10:55:32;;;;;;;0.30;0.10;;;4.00;99.90;;;;;;5070604;28;20922;-85
2022/01/17 10:58:02;;;;;;;0.30;0.20;;;4.00;99.90;;;;;;5088780;28;20544;-84
2022/01/17 11:00:31;;;;;;;0.30;0.20;;;4.00;99.90;;;;;;5089824;28;20767;-86
2022/01/17 11:03:02;;;;;;;0.30;0.20;;;4.10;99.90;;;;;;5089638;28;20496;-84
2022/01/17 11:05:31;;;;;;;0.30;0.10;;;4.10;99.90;;;;;;5090688;28;20967;-86
2022/01/17 11:08:01;;;;;;;0.30;0.20;;;4.10;99.90;;;;;;5090524;28;20449;-85
2022/01/17 11:10:32;;;;;;;0.30;0.10;;;4.20;99.90;;;;;;5081425;28;21253;-86
2022/01/17 11:13:02;;;;;;;0.30;0.10;;;4.20;99.90;;;;;;5077557;28;20431;-85
2022/01/17 11:15:33;;;;;;;0.30;0.20;;;4.30;99.90;;;;;;5075995;28;20472;-86
2022/01/17 11:18:05;;;;;;;0.50;0.30;;;4.20;99.90;;;;;;5083824;28;21048;-86
2022/01/17 11:20:34;;;;;;;0.30;0.10;;;4.20;99.90;;;;;;5089488;28;20451;-88
2022/01/17 11:23:03;;;;;;;0.30;0.10;;;4.20;99.90;;;;;;5072086;28;20797;-86
2022/01/17 11:25:32;;;;;;;0.50;0.27;;;4.20;99.90;;;;;;5090131;28;20511;-85
2022/01/17 11:28:00;;;;;;;0.77;0.30;;;4.20;99.90;;;;;;5076816;28;20455;-87
2022/01/17 11:30:28;;;;;;;0.40;0.40;;;4.00;99.90;;;;;;5086007;28;20914;-86
2022/01/17 11:32:57;;;;;;;0.30;0.10;;;3.90;99.90;;;;;;5076943;28;20459;-86
2022/01/17 11:35:26;;;;;;;0.30;0.10;;;3.80;99.90;;;;;;5069435;28;20512;-86
2022/01/17 11:37:58;;;;;;;0.30;0.10;;;3.90;99.90;;;;;;5077785;28;20463;-87
2022/01/17 11:40:30;;;;;;;0.30;0.10;;;3.90;99.90;;;;;;5090279;28;20609;-86
2022/01/17 11:42:59;;;;;;;0.30;0.10;;;3.80;99.90;;;;;;5089969;28;20451;-86
2022/01/17 11:45:38;;;;;;;0.30;0.10;;;3.90;99.90;;;;;;5073669;28;20452;-86
2022/01/17 11:48:18;;;;;;;0.30;0.20;;;4.00;99.90;;;;;;5085186;28;20445;-88
2022/01/17 11:50:49;;;;;;;0.30;0.10;;;4.00;99.90;;;;;;5119059;28;20430;-88
2022/01/17 11:53:44;;;;;;;0.30;0.20;;;4.00;99.90;;;;;;5113100;28;20431;-86
2022/01/17 11:56:15;;;;;;;0.30;0.10;;;4.10;99.90;;;;;;5111405;28;20500;-88
2022/01/17 11:58:46;;;;;;;0.30;0.20;;;4.00;99.90;;;;;;5092748;28;21002;-87
2022/01/17 12:01:16;;;;;;;2.70;0.77;;;4.00;99.90;;;;;;5086819;28;20660;-87
2022/01/17 12:03:46;;;;;;;0.40;0.20;;;4.00;99.90;;;;;;5087535;28;20531;-87
2022/01/17 12:06:26;;;;;;;0.30;0.20;;;4.10;99.90;;;;;;5090949;28;20541;-88
2022/01/17 12:09:19;;;;;;;0.30;0.10;;;4.10;99.90;;;;;;5090350;28;20524;-89
2022/01/17 12:11:47;;;;;;;0.40;0.30;;;4.10;99.90;;;;;;5090156;28;20518;-88
2022/01/17 12:14:29;;;;;;;0.30;0.10;;;4.10;99.90;;;;;;5091666;28;20459;-89
2022/01/17 12:17:31;;;;;;;0.30;0.10;;;4.10;99.90;;;;;;5091074;28;20450;-89
2022/01/17 12:20:24;;;;;;;0.30;0.10;;;4.10;99.90;;;;;;5093254;28;20461;-91
2022/01/17 12:22:57;;;;;;;0.30;0.20;;;4.20;99.90;;;;;;5092711;28;20968;-90
2022/01/17 12:25:34;;;;;;;0.30;0.10;;;4.20;99.90;;;;;;5092605;28;20458;-89
2022/01/17 12:28:25;;;;;;;0.30;0.10;;;4.20;99.90;;;;;;5092540;28;20525;-90
2022/01/17 12:30:55;;;;;;;0.30;0.20;;;4.20;99.90;;;;;;5092880;28;20443;-90
2022/01/17 12:33:37;;;;;;;0.30;0.10;;;4.20;99.90;;;;;;5093646;28;21128;-88
2022/01/17 12:36:27;;;;;;;0.30;0.10;;;4.30;99.90;;;;;;5073868;28;21550;-89
2022/01/17 12:39:10;;;;;;;0.30;0.20;;;4.30;99.90;;;;;;5073444;28;20521;-89
2022/01/17 12:41:41;;;;;;;0.30;0.10;;;4.30;99.90;;;;;;5088571;28;20482;-89
2022/01/17 12:44:17;;;;;;;0.30;0.10;;;4.20;99.90;;;;;;5093502;28;20473;-89
2022/01/17 12:46:45;;;;;;;0.40;0.30;;;4.20;99.90;;;;;;5092576;28;20462;-89
2022/01/17 12:49:14;;;;;;;0.30;0.10;;;4.20;99.90;;;;;;5092427;28;20482;-91
2022/01/17 12:51:42;;;;;;;0.30;0.20;;;4.20;99.90;;;;;;5093489;28;20520;-89
2022/01/17 12:54:14;;;;;;;0.30;0.20;;;4.30;99.90;;;;;;5081298;28;20464;-88
2022/01/17 12:56:42;;;;;;;0.30;0.20;;;4.20;99.90;;;;;;5072745;28;20463;-88
2022/01/17 12:59:10;;;;;;;0.30;0.10;;;4.10;99.90;;;;;;5072294;28;20497;-90
2022/01/17 13:01:43;;;;;;;0.30;0.10;;;4.20;99.90;;;;;;5073355;28;20520;-89
2022/01/17 13:04:12;;;;;;;0.30;0.10;;;4.20;99.90;;;;;;5076851;28;20448;-90
2022/01/17 13:06:41;;;;;;;0.30;0.10;;;4.20;99.90;;;;;;5094933;28;20440;-89
2022/01/17 13:09:13;;;;;;;0.30;0.20;;;4.20;99.90;;;;;;5095416;28;20483;-86
2022/01/17 13:11:41;;;;;;;0.30;0.10;;;4.30;99.90;;;;;;5090082;28;20424;-88
2022/01/17 13:14:10;;;;;;;0.90;0.90;;;4.20;99.90;;;;;;5106808;28;20473;-88
2022/01/17 13:16:38;;;;;;;0.40;0.20;;;4.20;99.90;;;;;;5089467;28;20452;-87
2022/01/17 13:19:07;;;;;;;0.30;0.10;;;4.20;99.90;;;;;;5101919;28;20447;-88
2022/01/17 13:21:37;;;;;;;0.30;0.10;;;4.20;99.90;;;;;;5106351;28;20474;-88
2022/01/17 13:24:14;;;;;;;0.30;0.17;;;4.20;99.90;;;;;;5108722;28;20514;-88
2022/01/17 13:26:44;;;;;;;0.50;0.27;;;4.20;99.90;;;;;;5118086;28;20439;-89
2022/01/17 13:29:12;;;;;;;0.30;0.10;;;4.20;99.90;;;;;;5117675;28;20479;-89